Terminal Aerodrome Forecast
Issued by NWS Amarillo, TX

Home | Current Version | Previous Version | Text Only | Print | Product List | Glossary On
Versions: 1 2 3 4 5 6 7 8 9 10 11 12 13 14 15 16 17 18 19 20 21 22 23
000
FTUS44 KAMA 291700
TAFGUY
TAF
KGUY 291740Z 2918/3018 15012KT P6SM SCT040 BKN090
     FM300100 15010KT P6SM VCTS BKN060CB
     FM300900 12010KT P6SM VCTS BKN060CB
     FM301500 04010KT P6SM SCT015 BKN050=

USA.gov is the U.S. government's official web portal to all federal, state and local government web resources and services.